sensor_id;sensor_type;location;lat;lon;timestamp;pressure;altitude;pressure_sealevel;temperature;humidity
71057;BME280;58380;48.312;9.246;2023-07-16T07:19:54;93810.97;;;17.52;100.00
71057;BME280;58380;48.312;9.246;2023-07-16T07:22:20;93763.91;;;17.14;100.00
71057;BME280;58380;48.312;9.246;2023-07-16T07:24:48;93795.53;;;17.21;100.00
71057;BME280;58380;48.312;9.246;2023-07-16T07:27:14;93791.06;;;17.02;100.00
71057;BME280;58380;48.312;9.246;2023-07-16T07:29:40;93792.56;;;16.76;99.96
71057;BME280;58380;48.312;9.246;2023-07-16T07:32:06;93824.63;;;16.71;100.00
71057;BME280;58380;48.312;9.246;2023-07-16T07:34:32;93710.09;;;16.00;100.00
71057;BME280;58380;48.312;9.246;2023-07-16T07:36:58;93761.69;;;16.56;99.29
71057;BME280;58380;48.312;9.246;2023-07-16T07:39:23;93780.66;;;16.87;92.85
71057;BME280;58380;48.312;9.246;2023-07-16T07:41:49;93827.50;;;17.40;98.43
71057;BME280;58380;48.312;9.246;2023-07-16T07:44:14;93820.47;;;17.72;99.33
71057;BME280;58380;48.312;9.246;2023-07-16T07:46:40;93820.34;;;18.04;96.75
71057;BME280;58380;48.312;9.246;2023-07-16T07:49:05;93774.22;;;17.90;88.92
71057;BME280;58380;48.312;9.246;2023-07-16T07:51:31;93832.75;;;18.37;83.96
71057;BME280;58380;48.312;9.246;2023-07-16T07:53:56;93763.00;;;17.74;86.30
71057;BME280;58380;48.312;9.246;2023-07-16T07:56:22;93824.94;;;17.62;77.98
71057;BME280;58380;48.312;9.246;2023-07-16T07:58:47;93804.75;;;17.56;80.49
71057;BME280;58380;48.312;9.246;2023-07-16T08:01:13;93804.44;;;17.72;76.88
71057;BME280;58380;48.312;9.246;2023-07-16T08:03:38;93785.38;;;17.51;76.89
71057;BME280;58380;48.312;9.246;2023-07-16T08:06:03;93820.47;;;17.58;80.38
71057;BME280;58380;48.312;9.246;2023-07-16T08:08:29;93820.28;;;17.40;79.11
71057;BME280;58380;48.312;9.246;2023-07-16T08:10:55;93800.97;;;17.30;81.00
71057;BME280;58380;48.312;9.246;2023-07-16T08:13:20;93788.72;;;17.29;77.54
71057;BME280;58380;48.312;9.246;2023-07-16T08:15:46;93805.72;;;17.19;75.89
71057;BME280;58380;48.312;9.246;2023-07-16T08:18:12;93819.34;;;17.31;78.99
71057;BME280;58380;48.312;9.246;2023-07-16T08:20:38;93816.81;;;17.40;76.82
71057;BME280;58380;48.312;9.246;2023-07-16T08:23:03;93781.00;;;17.27;77.55
71057;BME280;58380;48.312;9.246;2023-07-16T08:25:29;93832.53;;;17.55;79.19
71057;BME280;58380;48.312;9.246;2023-07-16T08:27:54;93829.28;;;17.86;78.68
71057;BME280;58380;48.312;9.246;2023-07-16T08:30:20;93816.56;;;18.19;78.99
71057;BME280;58380;48.312;9.246;2023-07-16T08:32:46;93773.59;;;18.29;80.43
71057;BME280;58380;48.312;9.246;2023-07-16T08:35:12;93767.06;;;18.36;71.45
71057;BME280;58380;48.312;9.246;2023-07-16T08:37:44;93797.88;;;18.19;70.98
71057;BME280;58380;48.312;9.246;2023-07-16T08:40:11;93760.47;;;17.83;72.61
71057;BME280;58380;48.312;9.246;2023-07-16T08:42:38;93762.03;;;17.70;73.17
71057;BME280;58380;48.312;9.246;2023-07-16T08:45:10;93801.81;;;17.85;74.50
71057;BME280;58380;48.312;9.246;2023-07-16T08:47:36;93786.38;;;17.55;71.55
71057;BME280;58380;48.312;9.246;2023-07-16T08:50:03;93834.03;;;17.75;73.21
71057;BME280;58380;48.312;9.246;2023-07-16T08:52:30;93815.03;;;17.77;72.28
71057;BME280;58380;48.312;9.246;2023-07-16T08:54:55;93789.81;;;17.97;75.81
71057;BME280;58380;48.312;9.246;2023-07-16T08:57:21;93837.31;;;18.36;68.09
71057;BME280;58380;48.312;9.246;2023-07-16T08:59:48;93827.19;;;18.10;69.29
71057;BME280;58380;48.312;9.246;2023-07-16T09:02:19;93837.38;;;18.22;74.18
71057;BME280;58380;48.312;9.246;2023-07-16T09:04:47;93821.66;;;18.43;73.67
71057;BME280;58380;48.312;9.246;2023-07-16T09:07:14;93833.16;;;18.80;72.77
71057;BME280;58380;48.312;9.246;2023-07-16T09:09:42;93800.56;;;18.78;68.51
71057;BME280;58380;48.312;9.246;2023-07-16T09:12:12;93835.38;;;18.87;69.18
71057;BME280;58380;48.312;9.246;2023-07-16T09:14:40;93833.41;;;18.56;70.79
71057;BME280;58380;48.312;9.246;2023-07-16T09:17:06;93813.78;;;18.24;71.50
71057;BME280;58380;48.312;9.246;2023-07-16T09:19:32;93821.13;;;18.32;72.29
71057;BME280;58380;48.312;9.246;2023-07-16T09:21:58;93825.28;;;18.25;74.55
71057;BME280;58380;48.312;9.246;2023-07-16T09:24:23;93835.88;;;18.30;72.27
71057;BME280;58380;48.312;9.246;2023-07-16T09:26:53;93815.91;;;18.14;73.04
71057;BME280;58380;48.312;9.246;2023-07-16T09:29:25;93839.22;;;18.22;72.01
71057;BME280;58380;48.312;9.246;2023-07-16T09:31:59;93800.91;;;17.90;72.85
71057;BME280;58380;48.312;9.246;2023-07-16T09:34:29;93838.38;;;18.49;69.61
71057;BME280;58380;48.312;9.246;2023-07-16T09:36:59;93849.91;;;18.94;69.73
71057;BME280;58380;48.312;9.246;2023-07-16T09:39:27;93803.75;;;18.80;70.98
71057;BME280;58380;48.312;9.246;2023-07-16T09:41:53;93841.78;;;18.77;70.72
71057;BME280;58380;48.312;9.246;2023-07-16T09:44:22;93812.59;;;18.30;69.78
71057;BME280;58380;48.312;9.246;2023-07-16T09:46:48;93776.19;;;17.71;70.51
71057;BME280;58380;48.312;9.246;2023-07-16T09:49:14;93823.69;;;18.38;75.28
71057;BME280;58380;48.312;9.246;2023-07-16T09:51:42;93761.63;;;18.27;72.11
71057;BME280;58380;48.312;9.246;2023-07-16T09:54:13;93743.88;;;18.45;68.42
71057;BME280;58380;48.312;9.246;2023-07-16T09:56:44;93785.38;;;18.87;67.82
71057;BME280;58380;48.312;9.246;2023-07-16T09:59:15;93766.81;;;18.91;72.64
71057;BME280;58380;48.312;9.246;2023-07-16T10:01:43;93832.72;;;19.40;66.56
71057;BME280;58380;48.312;9.246;2023-07-16T10:04:16;93837.66;;;19.47;69.08
71057;BME280;58380;48.312;9.246;2023-07-16T10:09:51;93834.56;;;19.63;68.00
71057;BME280;58380;48.312;9.246;2023-07-16T10:12:20;93779.47;;;19.30;69.26
71057;BME280;58380;48.312;9.246;2023-07-16T10:14:47;93748.91;;;19.23;66.96
71057;BME280;58380;48.312;9.246;2023-07-16T10:17:18;93822.34;;;19.70;68.19
71057;BME280;58380;48.312;9.246;2023-07-16T10:19:59;93769.38;;;19.27;66.79
71057;BME280;58380;48.312;9.246;2023-07-16T10:22:42;93766.50;;;19.24;69.32
71057;BME280;58380;48.312;9.246;2023-07-16T10:27:44;93825.59;;;20.16;74.07
71057;BME280;58380;48.312;9.246;2023-07-16T10:30:11;93734.88;;;19.74;70.93
71057;BME280;58380;48.312;9.246;2023-07-16T10:32:37;93769.00;;;20.09;71.41
71057;BME280;58380;48.312;9.246;2023-07-16T10:35:04;93825.34;;;20.61;68.31
71057;BME280;58380;48.312;9.246;2023-07-16T10:37:30;93794.56;;;20.23;63.19
71057;BME280;58380;48.312;9.246;2023-07-16T10:39:57;93839.19;;;20.19;64.08
71057;BME280;58380;48.312;9.246;2023-07-16T10:42:24;93835.69;;;20.10;68.33
71057;BME280;58380;48.312;9.246;2023-07-16T10:44:52;93748.81;;;19.45;67.10
71057;BME280;58380;48.312;9.246;2023-07-16T10:47:24;93761.06;;;19.77;67.71
71057;BME280;58380;48.312;9.246;2023-07-16T10:49:55;93730.13;;;19.63;65.09
71057;BME280;58380;48.312;9.246;2023-07-16T10:52:24;93782.09;;;20.10;68.02
71057;BME280;58380;48.312;9.246;2023-07-16T10:54:54;93755.28;;;20.19;64.64
71057;BME280;58380;48.312;9.246;2023-07-16T10:57:22;93780.06;;;20.33;61.76
71057;BME280;58380;48.312;9.246;2023-07-16T10:59:50;93766.50;;;20.12;61.78
71057;BME280;58380;48.312;9.246;2023-07-16T11:02:17;93785.72;;;20.32;64.13
71057;BME280;58380;48.312;9.246;2023-07-16T11:04:44;93824.56;;;20.60;62.58
71057;BME280;58380;48.312;9.246;2023-07-16T11:07:13;93822.84;;;20.56;62.80
71057;BME280;58380;48.312;9.246;2023-07-16T11:09:44;93835.78;;;20.62;61.41
71057;BME280;58380;48.312;9.246;2023-07-16T11:14:47;93831.66;;;20.91;61.86
71057;BME280;58380;48.312;9.246;2023-07-16T11:17:16;93827.38;;;21.07;62.35
71057;BME280;58380;48.312;9.246;2023-07-16T11:19:45;93789.06;;;20.89;59.78
71057;BME280;58380;48.312;9.246;2023-07-16T11:22:11;93826.09;;;21.14;64.54
71057;BME280;58380;48.312;9.246;2023-07-16T11:24:39;93817.25;;;21.13;61.85
71057;BME280;58380;48.312;9.246;2023-07-16T11:27:17;93799.91;;;21.19;62.27
71057;BME280;58380;48.312;9.246;2023-07-16T11:29:48;93797.97;;;21.28;62.10
71057;BME280;58380;48.312;9.246;2023-07-16T11:32:37;93806.59;;;21.51;60.57
71057;BME280;58380;48.312;9.246;2023-07-16T11:35:08;93801.97;;;21.69;63.67
71057;BME280;58380;48.312;9.246;2023-07-16T11:37:36;93802.84;;;21.82;57.98
71057;BME280;58380;48.312;9.246;2023-07-16T11:40:05;93807.38;;;21.90;58.25
71057;BME280;58380;48.312;9.246;2023-07-16T11:42:34;93798.56;;;21.81;56.62
71057;BME280;58380;48.312;9.246;2023-07-16T11:45:02;93787.47;;;21.62;58.12
71057;BME280;58380;48.312;9.246;2023-07-16T11:47:29;93763.50;;;21.48;58.08
71057;BME280;58380;48.312;9.246;2023-07-16T11:49:55;93808.16;;;21.91;61.10
71057;BME280;58380;48.312;9.246;2023-07-16T11:52:26;93784.81;;;21.83;57.92
71057;BME280;58380;48.312;9.246;2023-07-16T11:54:57;93794.22;;;21.97;61.74
71057;BME280;58380;48.312;9.246;2023-07-16T11:57:27;93796.75;;;21.94;57.55
71057;BME280;58380;48.312;9.246;2023-07-16T11:59:53;93786.81;;;21.65;56.92
71057;BME280;58380;48.312;9.246;2023-07-16T12:02:19;93807.19;;;21.66;59.83
71057;BME280;58380;48.312;9.246;2023-07-16T12:04:45;93803.88;;;21.60;60.29
71057;BME280;58380;48.312;9.246;2023-07-16T12:07:10;93793.63;;;21.53;57.78
71057;BME280;58380;48.312;9.246;2023-07-16T12:09:36;93789.88;;;21.37;59.73
71057;BME280;58380;48.312;9.246;2023-07-16T12:12:01;93793.34;;;21.46;59.42
71057;BME280;58380;48.312;9.246;2023-07-16T12:14:28;93733.94;;;21.01;55.91
71057;BME280;58380;48.312;9.246;2023-07-16T12:16:53;93794.63;;;21.31;60.03
71057;BME280;58380;48.312;9.246;2023-07-16T12:19:19;93784.69;;;21.32;61.43
71057;BME280;58380;48.312;9.246;2023-07-16T12:21:44;93785.09;;;21.51;60.85
71057;BME280;58380;48.312;9.246;2023-07-16T12:24:10;93769.94;;;21.56;61.08
71057;BME280;58380;48.312;9.246;2023-07-16T12:26:36;93772.72;;;21.68;58.61
71057;BME280;58380;48.312;9.246;2023-07-16T12:29:02;93782.44;;;21.81;58.24
71057;BME280;58380;48.312;9.246;2023-07-16T12:31:30;93791.38;;;21.94;64.38
71057;BME280;58380;48.312;9.246;2023-07-16T12:33:57;93780.41;;;22.08;61.04
71057;BME280;58380;48.312;9.246;2023-07-16T12:36:23;93772.72;;;22.18;60.89
71057;BME280;58380;48.312;9.246;2023-07-16T12:38:48;93784.78;;;22.42;56.54
71057;BME280;58380;48.312;9.246;2023-07-16T12:41:14;93783.88;;;22.38;57.66
71057;BME280;58380;48.312;9.246;2023-07-16T12:43:40;93766.69;;;22.30;55.50
71057;BME280;58380;48.312;9.246;2023-07-16T12:46:06;93776.84;;;22.46;60.14
71057;BME280;58380;48.312;9.246;2023-07-16T12:48:31;93772.25;;;22.67;59.55
71057;BME280;58380;48.312;9.246;2023-07-16T12:50:57;93766.50;;;22.90;57.63
71057;BME280;58380;48.312;9.246;2023-07-16T12:53:24;93774.44;;;23.07;52.82
71057;BME280;58380;48.312;9.246;2023-07-16T12:55:50;93771.53;;;23.12;52.70
71057;BME280;58380;48.312;9.246;2023-07-16T12:58:16;93766.97;;;22.92;53.40
71057;BME280;58380;48.312;9.246;2023-07-16T13:00:41;93756.31;;;22.95;55.57
71057;BME280;58380;48.312;9.246;2023-07-16T13:03:07;93759.78;;;22.96;54.60
71057;BME280;58380;48.312;9.246;2023-07-16T13:05:37;93756.59;;;23.02;53.39
71057;BME280;58380;48.312;9.246;2023-07-16T13:08:04;93742.69;;;23.13;57.22
71057;BME280;58380;48.312;9.246;2023-07-16T13:10:30;93763.03;;;23.35;52.74
71057;BME280;58380;48.312;9.246;2023-07-16T13:12:55;93771.81;;;23.32;53.10
71057;BME280;58380;48.312;9.246;2023-07-16T13:15:21;93738.41;;;22.99;55.14
71057;BME280;58380;48.312;9.246;2023-07-16T13:17:46;93745.44;;;22.71;53.60
71057;BME280;58380;48.312;9.246;2023-07-16T13:20:13;93770.06;;;22.81;57.14
71057;BME280;58380;48.312;9.246;2023-07-16T13:22:38;93780.03;;;23.02;56.05
71057;BME280;58380;48.312;9.246;2023-07-16T13:25:04;93757.56;;;22.98;56.35
71057;BME280;58380;48.312;9.246;2023-07-16T13:27:30;93760.50;;;23.05;55.49
71057;BME280;58380;48.312;9.246;2023-07-16T13:29:55;93757.53;;;23.19;57.20
71057;BME280;58380;48.312;9.246;2023-07-16T13:32:20;93759.88;;;23.20;54.60
71057;BME280;58380;48.312;9.246;2023-07-16T13:34:46;93745.84;;;23.15;54.00
71057;BME280;58380;48.312;9.246;2023-07-16T13:37:11;93753.78;;;23.11;56.53
71057;BME280;58380;48.312;9.246;2023-07-16T13:39:37;93706.25;;;22.49;54.18
71057;BME280;58380;48.312;9.246;2023-07-16T13:42:02;93735.59;;;22.42;55.81
71057;BME280;58380;48.312;9.246;2023-07-16T13:44:28;93735.19;;;22.52;57.58
71057;BME280;58380;48.312;9.246;2023-07-16T13:46:53;93743.88;;;22.70;56.86
71057;BME280;58380;48.312;9.246;2023-07-16T13:49:19;93727.59;;;22.66;54.23
71057;BME280;58380;48.312;9.246;2023-07-16T13:51:44;93758.50;;;22.81;55.27
71057;BME280;58380;48.312;9.246;2023-07-16T13:54:11;93763.19;;;22.72;54.98
71057;BME280;58380;48.312;9.246;2023-07-16T13:56:37;93708.66;;;22.29;56.03
71057;BME280;58380;48.312;9.246;2023-07-16T13:59:02;93762.53;;;22.54;57.64
71057;BME280;58380;48.312;9.246;2023-07-16T14:01:29;93733.16;;;22.28;57.52
71057;BME280;58380;48.312;9.246;2023-07-16T14:03:54;93750.47;;;22.60;59.87
71057;BME280;58380;48.312;9.246;2023-07-16T14:06:20;93757.88;;;22.63;62.66
71057;BME280;58380;48.312;9.246;2023-07-16T14:08:46;93757.47;;;22.73;63.11
71057;BME280;58380;48.312;9.246;2023-07-16T14:11:11;93743.13;;;22.69;61.25
71057;BME280;58380;48.312;9.246;2023-07-16T14:13:36;93765.38;;;22.91;60.75
71057;BME280;58380;48.312;9.246;2023-07-16T14:16:02;93759.56;;;23.34;60.57
71057;BME280;58380;48.312;9.246;2023-07-16T14:18:28;93756.59;;;23.85;64.34
71057;BME280;58380;48.312;9.246;2023-07-16T14:20:54;93726.78;;;24.06;57.81
71057;BME280;58380;48.312;9.246;2023-07-16T14:23:19;93756.19;;;24.23;54.69
71057;BME280;58380;48.312;9.246;2023-07-16T14:25:45;93741.50;;;23.96;56.44
71057;BME280;58380;48.312;9.246;2023-07-16T14:28:11;93737.34;;;24.11;58.24
71057;BME280;58380;48.312;9.246;2023-07-16T14:30:36;93735.72;;;24.35;52.78
71057;BME280;58380;48.312;9.246;2023-07-16T14:33:02;93706.69;;;23.91;51.89
71057;BME280;58380;48.312;9.246;2023-07-16T14:35:29;93719.84;;;23.93;50.95
71057;BME280;58380;48.312;9.246;2023-07-16T14:37:55;93659.47;;;23.44;50.56
71057;BME280;58380;48.312;9.246;2023-07-16T14:40:24;93720.63;;;23.56;51.67
71057;BME280;58380;48.312;9.246;2023-07-16T14:42:49;93740.19;;;23.78;56.29
71057;BME280;58380;48.312;9.246;2023-07-16T14:45:14;93740.63;;;24.04;52.08
71057;BME280;58380;48.312;9.246;2023-07-16T14:47:40;93743.38;;;24.32;53.72
71057;BME280;58380;48.312;9.246;2023-07-16T14:50:06;93733.84;;;24.63;50.29
71057;BME280;58380;48.312;9.246;2023-07-16T14:52:31;93739.25;;;24.91;52.90
71057;BME280;58380;48.312;9.246;2023-07-16T14:54:57;93683.13;;;24.69;52.07
71057;BME280;58380;48.312;9.246;2023-07-16T14:57:22;93730.72;;;24.61;50.91
71057;BME280;58380;48.312;9.246;2023-07-16T14:59:48;93746.56;;;24.63;52.71
71057;BME280;58380;48.312;9.246;2023-07-16T15:02:13;93705.88;;;24.56;50.35
71057;BME280;58380;48.312;9.246;2023-07-16T15:04:39;93696.34;;;24.46;50.90
71057;BME280;58380;48.312;9.246;2023-07-16T15:07:05;93729.50;;;25.03;50.57
71057;BME280;58380;48.312;9.246;2023-07-16T15:09:31;93704.16;;;25.07;51.08
71057;BME280;58380;48.312;9.246;2023-07-16T15:11:56;93716.13;;;25.22;49.07
71057;BME280;58380;48.312;9.246;2023-07-16T15:14:22;93718.06;;;25.37;48.75
71057;BME280;58380;48.312;9.246;2023-07-16T15:16:47;93676.69;;;25.05;48.50
71057;BME280;58380;48.312;9.246;2023-07-16T15:19:12;93714.84;;;25.32;48.53
71057;BME280;58380;48.312;9.246;2023-07-16T15:21:38;93693.66;;;25.34;48.05
71057;BME280;58380;48.312;9.246;2023-07-16T15:24:05;93711.41;;;25.51;48.44
71057;BME280;58380;48.312;9.246;2023-07-16T15:26:31;93712.25;;;25.07;50.19
71057;BME280;58380;48.312;9.246;2023-07-16T15:28:57;93710.75;;;25.54;51.52
71057;BME280;58380;48.312;9.246;2023-07-16T15:31:23;93709.94;;;25.69;51.61
71057;BME280;58380;48.312;9.246;2023-07-16T15:33:54;93728.09;;;25.69;52.77
71057;BME280;58380;48.312;9.246;2023-07-16T15:36:20;93649.50;;;24.82;49.51
71057;BME280;58380;48.312;9.246;2023-07-16T15:38:46;93674.00;;;24.89;51.07
71057;BME280;58380;48.312;9.246;2023-07-16T15:41:15;93682.38;;;25.00;53.26
71057;BME280;58380;48.312;9.246;2023-07-16T15:43:46;93683.31;;;25.08;52.16
71057;BME280;58380;48.312;9.246;2023-07-16T15:46:15;93727.50;;;25.15;50.91
71057;BME280;58380;48.312;9.246;2023-07-16T15:48:41;93671.94;;;24.54;54.59
71057;BME280;58380;48.312;9.246;2023-07-16T15:51:16;93672.59;;;24.80;53.39
71057;BME280;58380;48.312;9.246;2023-07-16T15:54:03;93679.47;;;24.77;52.14
71057;BME280;58380;48.312;9.246;2023-07-16T15:56:33;93678.28;;;24.46;53.31
71057;BME280;58380;48.312;9.246;2023-07-16T15:58:59;93687.03;;;24.31;53.63
71057;BME280;58380;48.312;9.246;2023-07-16T16:01:26;93730.84;;;24.40;55.53
71057;BME280;58380;48.312;9.246;2023-07-16T16:03:52;93666.94;;;23.88;53.56
71057;BME280;58380;48.312;9.246;2023-07-16T16:06:18;93681.22;;;23.76;55.56
71057;BME280;58380;48.312;9.246;2023-07-16T16:08:45;93750.41;;;24.09;58.19
71057;BME280;58380;48.312;9.246;2023-07-16T16:11:11;93639.91;;;23.35;58.05
71057;BME280;58380;48.312;9.246;2023-07-16T16:13:37;93711.41;;;23.69;56.53
71057;BME280;58380;48.312;9.246;2023-07-16T16:16:02;93741.31;;;23.77;58.36
71057;BME280;58380;48.312;9.246;2023-07-16T16:18:30;93630.09;;;22.94;60.01
71057;BME280;58380;48.312;9.246;2023-07-16T16:20:56;93670.44;;;23.15;60.67
71057;BME280;58380;48.312;9.246;2023-07-16T16:23:21;93664.13;;;22.98;61.89
71057;BME280;58380;48.312;9.246;2023-07-16T16:25:47;93687.38;;;23.03;61.88
71057;BME280;58380;48.312;9.246;2023-07-16T16:28:13;93708.47;;;23.13;60.03
71057;BME280;58380;48.312;9.246;2023-07-16T16:30:40;93690.91;;;22.95;58.54
71057;BME280;58380;48.312;9.246;2023-07-16T16:33:06;93690.97;;;22.74;57.93
71057;BME280;58380;48.312;9.246;2023-07-16T16:35:35;93700.38;;;22.68;58.51
71057;BME280;58380;48.312;9.246;2023-07-16T16:38:08;93702.75;;;22.69;61.99
71057;BME280;58380;48.312;9.246;2023-07-16T16:40:38;93725.41;;;22.80;63.77
71057;BME280;58380;48.312;9.246;2023-07-16T16:43:04;93684.44;;;22.63;62.32
71057;BME280;58380;48.312;9.246;2023-07-16T16:45:30;93712.69;;;22.69;58.26
71057;BME280;58380;48.312;9.246;2023-07-16T16:47:56;93721.03;;;22.76;61.37
71057;BME280;58380;48.312;9.246;2023-07-16T16:50:22;93726.75;;;22.74;64.03
71057;BME280;58380;48.312;9.246;2023-07-16T16:52:48;93684.50;;;22.42;65.47
71057;BME280;58380;48.312;9.246;2023-07-16T16:55:14;93690.91;;;22.49;65.00
71057;BME280;58380;48.312;9.246;2023-07-16T16:57:39;93690.66;;;22.42;61.13
71057;BME280;58380;48.312;9.246;2023-07-16T17:00:06;93678.16;;;22.25;60.22
71057;BME280;58380;48.312;9.246;2023-07-16T17:02:36;93694.06;;;22.30;61.96
71057;BME280;58380;48.312;9.246;2023-07-16T17:05:04;93735.63;;;22.54;58.65
71057;BME280;58380;48.312;9.246;2023-07-16T17:07:30;93723.44;;;22.35;59.82
71057;BME280;58380;48.312;9.246;2023-07-16T17:09:56;93649.59;;;21.91;61.44
71057;BME280;58380;48.312;9.246;2023-07-16T17:12:22;93711.91;;;22.35;63.90
71057;BME280;58380;48.312;9.246;2023-07-16T17:14:48;93686.22;;;22.16;65.18
71057;BME280;58380;48.312;9.246;2023-07-16T17:17:14;93684.28;;;22.05;67.53
71057;BME280;58380;48.312;9.246;2023-07-16T17:19:45;93745.44;;;22.37;70.10
71057;BME280;58380;48.312;9.246;2023-07-16T17:22:13;93746.41;;;22.33;70.31
71057;BME280;58380;48.312;9.246;2023-07-16T17:24:43;93706.47;;;22.02;71.39
71057;BME280;58380;48.312;9.246;2023-07-16T17:27:08;93691.50;;;21.92;70.70
71057;BME280;58380;48.312;9.246;2023-07-16T17:29:44;93732.91;;;22.21;71.07
71057;BME280;58380;48.312;9.246;2023-07-16T17:32:10;93685.59;;;21.78;69.55
71057;BME280;58380;48.312;9.246;2023-07-16T17:34:38;93727.50;;;22.00;68.45
71057;BME280;58380;48.312;9.246;2023-07-16T17:37:06;93730.56;;;21.89;68.94
71057;BME280;58380;48.312;9.246;2023-07-16T17:39:33;93706.53;;;21.63;71.37
71057;BME280;58380;48.312;9.246;2023-07-16T17:41:59;93704.69;;;21.55;73.52
71057;BME280;58380;48.312;9.246;2023-07-16T17:44:29;93760.75;;;21.86;70.59
71057;BME280;58380;48.312;9.246;2023-07-16T17:46:55;93710.72;;;21.52;72.29
71057;BME280;58380;48.312;9.246;2023-07-16T17:49:21;93693.72;;;21.39;73.65
71057;BME280;58380;48.312;9.246;2023-07-16T17:51:47;93760.81;;;21.78;74.30
71057;BME280;58380;48.312;9.246;2023-07-16T17:54:12;93749.00;;;21.70;74.50
71057;BME280;58380;48.312;9.246;2023-07-16T17:56:37;93720.38;;;21.36;74.98
71057;BME280;58380;48.312;9.246;2023-07-16T17:59:03;93759.47;;;21.63;77.52
71057;BME280;58380;48.312;9.246;2023-07-16T18:01:28;93707.44;;;21.29;76.72
71057;BME280;58380;48.312;9.246;2023-07-16T18:03:56;93757.94;;;21.53;74.35
71057;BME280;58380;48.312;9.246;2023-07-16T18:06:22;93759.69;;;21.49;72.86
71057;BME280;58380;48.312;9.246;2023-07-16T18:08:47;93771.53;;;21.48;71.80
71057;BME280;58380;48.312;9.246;2023-07-16T18:11:13;93762.41;;;21.40;70.69
71057;BME280;58380;48.312;9.246;2023-07-16T18:13:38;93667.25;;;20.82;67.24
71057;BME280;58380;48.312;9.246;2023-07-16T18:16:04;93762.88;;;21.42;68.71
71057;BME280;58380;48.312;9.246;2023-07-16T18:18:29;93766.81;;;21.36;72.59
71057;BME280;58380;48.312;9.246;2023-07-16T18:20:56;93767.63;;;21.28;68.72
71057;BME280;58380;48.312;9.246;2023-07-16T18:23:22;93773.97;;;21.23;67.47
71057;BME280;58380;48.312;9.246;2023-07-16T18:25:47;93750.16;;;21.13;69.04
71057;BME280;58380;48.312;9.246;2023-07-16T18:28:13;93773.19;;;21.23;72.96
71057;BME280;58380;48.312;9.246;2023-07-16T18:30:38;93769.25;;;21.11;69.20
71057;BME280;58380;48.312;9.246;2023-07-16T18:33:04;93763.94;;;21.03;69.69
71057;BME280;58380;48.312;9.246;2023-07-16T18:35:30;93773.38;;;21.09;71.64
71057;BME280;58380;48.312;9.246;2023-07-16T18:37:57;93753.66;;;20.96;72.00
71057;BME280;58380;48.312;9.246;2023-07-16T18:40:22;93773.41;;;21.00;73.07
71057;BME280;58380;48.312;9.246;2023-07-16T18:42:48;93750.72;;;20.72;71.93
71057;BME280;58380;48.312;9.246;2023-07-16T18:45:13;93778.00;;;20.91;73.27
71057;BME280;58380;48.312;9.246;2023-07-16T18:50:04;93784.66;;;20.85;74.24
71057;BME280;58380;48.312;9.246;2023-07-16T18:52:33;93765.25;;;20.71;75.19
71057;BME280;58380;48.312;9.246;2023-07-16T19:26:24;93712.13;;;19.37;77.96
71057;BME280;58380;48.312;9.246;2023-07-16T19:34:27;93709.16;;;19.07;79.43
71057;BME280;58380;48.312;9.246;2023-07-16T19:57:50;93713.97;;;18.43;86.22
71057;BME280;58380;48.312;9.246;2023-07-16T20:08:10;93843.66;;;18.99;85.00
71057;BME280;58380;48.312;9.246;2023-07-16T20:13:29;93745.72;;;18.22;87.04
71057;BME280;58380;48.312;9.246;2023-07-16T20:22:07;93775.22;;;18.17;87.87
71057;BME280;58380;48.312;9.246;2023-07-16T20:50:27;93758.41;;;18.16;91.91
71057;BME280;58380;48.312;9.246;2023-07-16T20:53:01;93815.22;;;18.44;91.14
71057;BME280;58380;48.312;9.246;2023-07-16T20:58:10;93756.25;;;18.04;95.14
71057;BME280;58380;48.312;9.246;2023-07-16T21:01:15;93768.03;;;18.03;90.54
71057;BME280;58380;48.312;9.246;2023-07-16T21:04:00;93751.63;;;17.96;93.04
71057;BME280;58380;48.312;9.246;2023-07-16T21:06:28;93857.06;;;18.63;91.50
71057;BME280;58380;48.312;9.246;2023-07-16T21:16:55;93802.31;;;17.87;95.25
71057;BME280;58380;48.312;9.246;2023-07-16T21:22:28;93795.47;;;17.67;92.76
71057;BME280;58380;48.312;9.246;2023-07-16T21:25:03;93859.44;;;17.86;93.13
71057;BME280;58380;48.312;9.246;2023-07-16T21:27:39;93821.06;;;17.41;94.18
71057;BME280;58380;48.312;9.246;2023-07-16T21:30:13;93800.59;;;17.22;94.52
71057;BME280;58380;48.312;9.246;2023-07-16T21:32:42;93865.06;;;17.57;94.70
71057;BME280;58380;48.312;9.246;2023-07-16T21:35:09;93863.66;;;17.46;94.68
71057;BME280;58380;48.312;9.246;2023-07-16T21:37:35;93818.91;;;16.96;95.27
71057;BME280;58380;48.312;9.246;2023-07-16T21:40:00;93868.25;;;17.27;96.36
